createdAt,value
2019-05-15T00:02:15.840Z,54.28
2019-05-15T00:04:49.109Z,54.23
2019-05-15T00:07:20.173Z,54.18
2019-05-15T00:09:51.485Z,54.65
2019-05-15T00:12:22.751Z,54.78
2019-05-15T00:14:54.084Z,54.15
2019-05-15T00:17:25.379Z,54.39
2019-05-15T00:19:58.191Z,54.75
2019-05-15T00:22:29.622Z,55.21
2019-05-15T00:25:00.955Z,55.69
2019-05-15T00:27:32.292Z,55.92
2019-05-15T00:30:03.567Z,55.63
2019-05-15T00:32:34.884Z,55.29
2019-05-15T00:35:09.088Z,56.06
2019-05-15T00:37:39.790Z,55.87
2019-05-15T00:40:11.315Z,55.26
2019-05-15T00:42:42.603Z,55.28
2019-05-15T00:45:14.266Z,56.00
2019-05-15T00:47:45.515Z,55.40
2019-05-15T00:50:18.209Z,56.05
2019-05-15T00:52:49.648Z,55.51
2019-05-15T00:55:20.892Z,55.81
2019-05-15T00:57:52.219Z,56.39
2019-05-15T01:00:43.064Z,55.85
2019-05-15T01:03:14.590Z,56.63
2019-05-15T01:05:47.982Z,56.65
2019-05-15T01:08:19.321Z,57.08
2019-05-15T01:10:50.739Z,57.10
2019-05-15T01:13:22.031Z,57.66
2019-05-15T01:15:53.317Z,56.66
2019-05-15T01:18:24.622Z,56.57
2019-05-15T01:20:55.961Z,57.45
2019-05-15T01:23:28.208Z,57.84
2019-05-15T01:25:59.715Z,57.69
2019-05-15T01:28:31.039Z,57.75
2019-05-15T01:31:02.320Z,58.02
2019-05-15T01:33:33.599Z,58.21
2019-05-15T01:36:04.901Z,58.43
2019-05-15T01:38:38.626Z,58.45
2019-05-15T01:41:09.843Z,59.16
2019-05-15T01:43:41.275Z,59.57
2019-05-15T01:46:12.540Z,59.66
2019-05-15T01:48:43.842Z,59.78
2019-05-15T01:51:15.166Z,60.43
2019-05-15T01:53:48.022Z,61.09
2019-05-15T01:56:19.490Z,61.30
2019-05-15T01:58:50.781Z,61.36
2019-05-15T02:01:22.055Z,61.56
2019-05-15T02:03:53.307Z,62.12
2019-05-15T02:06:24.624Z,62.70
2019-05-15T02:08:58.540Z,62.42
2019-05-15T02:11:29.049Z,62.73
2019-05-15T02:14:00.354Z,62.78
2019-05-15T02:16:31.649Z,63.05
2019-05-15T02:19:02.914Z,63.08
2019-05-15T02:21:34.203Z,63.10
2019-05-15T02:24:07.798Z,63.32
2019-05-15T02:26:38.987Z,63.88
2019-05-15T02:29:13.161Z,64.21
2019-05-15T02:31:43.219Z,62.70
2019-05-15T02:34:14.492Z,63.39
2019-05-15T02:36:48.991Z,63.00
2019-05-15T02:39:19.143Z,62.89
2019-05-15T02:41:50.408Z,63.40
2019-05-15T02:44:21.702Z,63.73
2019-05-15T02:46:53.022Z,63.51
2019-05-15T02:49:24.467Z,63.59
2019-05-15T02:51:55.781Z,63.57
2019-05-15T02:54:29.904Z,63.65
2019-05-15T02:57:00.071Z,63.35
2019-05-15T02:59:31.392Z,63.58
2019-05-15T03:02:02.676Z,63.13
2019-05-15T03:04:33.990Z,63.25
2019-05-15T03:07:05.272Z,63.37
2019-05-15T03:09:39.711Z,62.85
2019-05-15T03:12:09.522Z,63.68
2019-05-15T03:14:40.854Z,63.09
2019-05-15T03:17:12.118Z,62.91
2019-05-15T03:19:43.599Z,62.87
2019-05-15T03:22:14.926Z,63.21
2019-05-15T03:24:46.248Z,63.20
2019-05-15T03:27:19.738Z,63.39
2019-05-15T03:29:50.540Z,63.34
2019-05-15T03:32:32.275Z,63.48
2019-05-15T03:34:57.275Z,63.63
2019-05-15T03:37:33.614Z,63.63
2019-05-15T03:40:00.932Z,64.01
2019-05-15T03:42:32.218Z,63.78
2019-05-15T03:45:03.614Z,64.06
2019-05-15T03:47:34.942Z,63.98
2019-05-15T03:50:09.001Z,64.18
2019-05-15T03:52:39.947Z,64.46
2019-05-15T03:55:11.436Z,64.61
2019-05-15T03:57:42.773Z,64.71
2019-05-15T04:00:14.606Z,64.87
2019-05-15T04:02:48.650Z,64.98
2019-05-15T04:05:19.904Z,65.24
2019-05-15T04:07:51.325Z,64.93
2019-05-15T04:10:22.576Z,65.20
2019-05-15T04:12:53.932Z,65.16
2019-05-15T04:15:25.201Z,65.03
2019-05-15T04:18:00.002Z,65.42
2019-05-15T04:20:29.839Z,65.79
2019-05-15T04:23:01.234Z,66.06
2019-05-15T04:25:34.352Z,65.76
2019-05-15T04:28:09.943Z,66.32
2019-05-15T04:30:41.378Z,66.42
2019-05-15T04:33:12.630Z,66.79
2019-05-15T04:35:43.910Z,66.88
2019-05-15T04:38:15.244Z,66.99
2019-05-15T04:40:49.850Z,67.27
2019-05-15T04:43:19.647Z,67.37
2019-05-15T04:45:50.979Z,66.84
2019-05-15T04:48:22.248Z,66.92
2019-05-15T04:50:53.546Z,66.91
2019-05-15T04:53:24.767Z,66.81
2019-05-15T04:55:56.083Z,66.38
2019-05-15T04:58:29.638Z,66.44
2019-05-15T05:01:00.536Z,66.50
2019-05-15T05:03:34.637Z,66.39
2019-05-15T05:06:05.234Z,66.02
2019-05-15T05:08:39.465Z,65.90
2019-05-15T05:11:10.178Z,65.30
2019-05-15T05:13:41.472Z,65.43
2019-05-15T05:16:12.791Z,65.26
2019-05-15T05:18:44.132Z,64.93
2019-05-15T05:21:15.428Z,64.89
2019-05-15T05:23:48.428Z,63.58
2019-05-15T05:26:19.814Z,63.82
2019-05-15T05:28:51.103Z,63.43
2019-05-15T05:31:22.378Z,63.27
2019-05-15T05:33:53.777Z,61.96
2019-05-15T05:36:25.082Z,61.19
2019-05-15T05:38:58.338Z,61.28
2019-05-15T05:41:29.376Z,60.82
2019-05-15T05:44:00.691Z,60.00
2019-05-15T05:46:32.005Z,59.72
2019-05-15T05:49:03.391Z,58.74
2019-05-15T05:51:34.676Z,58.75
2019-05-15T05:54:08.284Z,57.61
2019-05-15T05:56:38.949Z,55.42
2019-05-15T05:59:10.226Z,54.83
2019-05-15T06:01:44.215Z,53.13
2019-05-15T06:04:14.578Z,53.15
2019-05-15T06:06:45.890Z,53.58
2019-05-15T06:09:18.239Z,52.60
2019-05-15T06:11:49.637Z,52.12
2019-05-15T06:14:20.953Z,52.37
2019-05-15T06:16:52.257Z,51.47
2019-05-15T06:19:23.556Z,50.02
2019-05-15T06:22:00.248Z,49.15
2019-05-15T06:24:30.535Z,49.21
2019-05-15T06:27:00.959Z,48.73
2019-05-15T06:29:32.253Z,49.36
2019-05-15T06:32:03.519Z,48.30
2019-05-15T06:34:34.788Z,48.33
2019-05-15T06:37:08.196Z,46.44
2019-05-15T06:39:39.261Z,46.96
2019-05-15T06:42:10.708Z,47.10
2019-05-15T06:44:42.054Z,46.60
2019-05-15T06:47:13.347Z,45.47
2019-05-15T06:49:48.637Z,44.89
2019-05-15T06:52:20.103Z,43.01
2019-05-15T06:54:51.539Z,42.08
2019-05-15T06:57:22.875Z,41.87
2019-05-15T06:59:54.164Z,43.67
2019-05-15T07:02:25.459Z,40.49
2019-05-15T07:04:58.350Z,40.00
2019-05-15T07:07:29.830Z,40.19
2019-05-15T07:10:01.155Z,39.94
2019-05-15T07:12:32.651Z,39.64
2019-05-15T07:15:04.146Z,37.65
2019-05-15T07:17:35.560Z,36.63
2019-05-15T07:20:08.656Z,36.45
2019-05-15T07:22:40.297Z,35.91
2019-05-15T07:25:11.909Z,36.11
2019-05-15T07:27:43.295Z,32.47
2019-05-15T07:30:15.108Z,33.07
2019-05-15T07:32:48.605Z,32.57
2019-05-15T07:35:20.295Z,30.99
2019-05-15T07:37:51.615Z,31.35
2019-05-15T07:40:23.557Z,31.83
2019-05-15T07:42:54.842Z,29.65
2019-05-15T07:45:28.296Z,29.39
2019-05-15T07:47:59.226Z,29.86
2019-05-15T07:50:30.513Z,30.39
2019-05-15T07:53:02.238Z,29.75
2019-05-15T07:55:33.788Z,29.51
2019-05-15T07:58:05.233Z,29.68
2019-05-15T08:00:39.300Z,28.65
2019-05-15T08:03:10.414Z,28.15
2019-05-15T08:05:54.950Z,28.89
2019-05-15T08:08:14.912Z,28.27
2019-05-15T08:10:48.895Z,27.84
2019-05-15T08:13:19.805Z,28.33
2019-05-15T08:15:51.184Z,27.76
2019-05-15T08:18:22.448Z,26.96
2019-05-15T08:20:53.843Z,27.43
2019-05-15T08:23:25.129Z,27.43
2019-05-15T08:25:57.880Z,27.73
2019-05-15T08:28:29.330Z,28.16
2019-05-15T08:31:00.655Z,27.88
2019-05-15T08:33:31.893Z,26.84
2019-05-15T08:36:03.162Z,26.84
2019-05-15T08:38:34.504Z,27.29
2019-05-15T08:41:11.185Z,26.69
2019-05-15T08:43:38.888Z,26.77
2019-05-15T08:46:10.204Z,26.62
2019-05-15T08:48:41.539Z,26.47
2019-05-15T08:51:12.826Z,26.18
2019-05-15T08:53:44.219Z,27.17
2019-05-15T08:56:15.498Z,26.53
2019-05-15T08:58:48.677Z,26.86
2019-05-15T09:01:19.790Z,27.32
2019-05-15T09:03:51.099Z,26.79
2019-05-15T09:06:23.152Z,26.39
2019-05-15T09:08:54.614Z,26.24
2019-05-15T09:11:28.181Z,26.09
2019-05-15T09:13:59.626Z,25.89
2019-05-15T09:16:30.971Z,26.04
2019-05-15T09:19:02.374Z,25.64
2019-05-15T09:21:33.748Z,26.08
2019-05-15T09:24:05.092Z,25.97
2019-05-15T09:26:40.104Z,25.56
2019-05-15T09:29:09.540Z,25.88
2019-05-15T09:31:40.867Z,25.44
2019-05-15T09:34:12.199Z,25.72
2019-05-15T09:36:45.308Z,25.59
2019-05-15T09:39:18.331Z,25.15
2019-05-15T09:41:49.726Z,25.57
2019-05-15T09:44:22.093Z,25.28
2019-05-15T09:46:53.573Z,25.45
2019-05-15T09:49:24.888Z,25.29
2019-05-15T09:51:58.426Z,25.28
2019-05-15T09:54:29.518Z,25.58
2019-05-15T09:57:00.846Z,25.76
2019-05-15T09:59:32.152Z,25.53
2019-05-15T10:02:03.466Z,25.64
2019-05-15T10:04:34.762Z,25.83
2019-05-15T10:07:08.087Z,26.05
2019-05-15T10:09:39.073Z,25.75
2019-05-15T10:12:10.345Z,24.74
2019-05-15T10:14:41.623Z,24.43
2019-05-15T10:17:12.986Z,23.86
2019-05-15T10:19:44.276Z,23.56
2019-05-15T10:22:15.554Z,23.57
2019-05-15T10:24:50.836Z,23.59
2019-05-15T10:27:19.786Z,23.29
2019-05-15T10:29:51.068Z,23.36
2019-05-15T10:32:22.469Z,22.33
2019-05-15T10:34:53.764Z,22.62
2019-05-15T10:37:25.054Z,22.68
2019-05-15T10:39:58.431Z,23.04
2019-05-15T10:42:29.322Z,22.63
2019-05-15T10:45:00.640Z,22.70
2019-05-15T10:47:31.982Z,22.73
2019-05-15T10:50:03.318Z,22.20
2019-05-15T10:52:34.610Z,22.19
2019-05-15T10:55:08.919Z,22.55
2019-05-15T10:57:43.232Z,22.27
2019-05-15T11:00:13.506Z,21.68
2019-05-15T11:02:44.769Z,21.65
2019-05-15T11:05:17.975Z,21.81
2019-05-15T11:07:49.361Z,20.40
2019-05-15T11:10:20.790Z,20.71
2019-05-15T11:12:52.072Z,20.92
2019-05-15T11:15:23.413Z,21.08
2019-05-15T11:17:54.723Z,22.21
2019-05-15T11:20:25.980Z,22.65
2019-05-15T11:22:59.156Z,22.02
2019-05-15T11:25:30.504Z,22.64
2019-05-15T11:28:01.791Z,22.03
2019-05-15T11:30:33.117Z,22.17
2019-05-15T11:33:04.427Z,21.17
2019-05-15T11:35:40.696Z,20.81
2019-05-15T11:38:10.867Z,20.01
2019-05-15T11:40:42.121Z,20.81
2019-05-15T11:43:13.424Z,21.42
2019-05-15T11:45:44.682Z,20.59
2019-05-15T11:48:15.967Z,19.65
2019-05-15T11:50:47.229Z,19.62
2019-05-15T11:53:19.180Z,20.72
2019-05-15T11:55:50.712Z,20.25
2019-05-15T11:58:22.008Z,20.51
2019-05-15T12:00:53.280Z,20.17
2019-05-15T12:03:25.078Z,21.02
2019-05-15T12:05:59.660Z,20.38
2019-05-15T12:08:29.578Z,20.59
2019-05-15T12:11:01.771Z,20.16
2019-05-15T12:13:33.117Z,19.77
2019-05-15T12:16:04.426Z,19.11
2019-05-15T12:18:39.042Z,19.62
2019-05-15T12:21:12.577Z,19.27
2019-05-15T12:23:43.914Z,20.08
2019-05-15T12:26:15.228Z,19.90
2019-05-15T12:28:48.921Z,19.81
2019-05-15T12:31:24.420Z,20.02
2019-05-15T12:33:52.541Z,18.64
2019-05-15T12:36:47.260Z,18.77
2019-05-15T12:38:57.235Z,18.69
2019-05-15T13:01:54.386Z,19.08
2019-05-15T13:04:28.286Z,18.87
2019-05-15T13:07:12.250Z,18.62
2019-05-15T13:09:32.313Z,18.45
2019-05-15T13:12:03.641Z,19.05
2019-05-15T13:14:34.997Z,17.63
2019-05-15T13:17:09.119Z,17.74
2019-05-15T13:19:41.059Z,17.85
2019-05-15T13:22:18.109Z,19.11
2019-05-15T13:24:48.079Z,18.25
2019-05-15T13:27:18.513Z,17.74
2019-05-15T13:29:49.817Z,18.03
2019-05-15T13:32:21.131Z,18.62
2019-05-15T13:34:55.276Z,18.54
2019-05-15T13:37:30.966Z,19.29
2019-05-15T13:40:06.624Z,19.78
2019-05-15T13:42:39.119Z,20.29
2019-05-15T13:45:13.797Z,19.57
2019-05-15T13:47:45.097Z,19.46
2019-05-15T13:50:19.355Z,19.65
2019-05-15T13:52:49.358Z,19.37
2019-05-15T13:55:25.733Z,19.48
2019-05-15T13:57:53.694Z,18.74
2019-05-15T14:00:25.060Z,18.66
2019-05-15T14:02:58.398Z,19.19
2019-05-15T14:05:29.808Z,19.52
2019-05-15T14:08:01.100Z,19.99
2019-05-15T14:10:32.372Z,19.56
2019-05-15T14:13:03.668Z,19.15
2019-05-15T14:15:34.960Z,18.93
2019-05-15T14:18:08.363Z,18.88
2019-05-15T14:20:39.222Z,18.84
2019-05-15T14:23:10.695Z,19.79
2019-05-15T14:25:42.093Z,19.61
2019-05-15T14:28:13.381Z,19.64
2019-05-15T14:30:44.670Z,20.19
2019-05-15T14:33:15.955Z,19.86
2019-05-15T14:35:48.694Z,20.15
2019-05-15T14:38:22.274Z,20.49
2019-05-15T14:40:55.260Z,20.20
2019-05-15T14:43:26.518Z,20.65
2019-05-15T14:45:59.918Z,20.32
2019-05-15T14:48:31.215Z,19.97
2019-05-15T14:51:02.509Z,20.49
2019-05-15T14:53:33.840Z,20.75
2019-05-15T14:56:08.432Z,20.59
2019-05-15T14:58:39.207Z,20.31
2019-05-15T15:01:12.496Z,20.27
2019-05-15T15:03:43.520Z,20.22
2019-05-15T15:06:14.817Z,20.39
2019-05-15T15:08:46.501Z,20.54
2019-05-15T15:11:19.214Z,20.36
2019-05-15T15:13:50.562Z,20.42
2019-05-15T15:16:21.896Z,20.65
2019-05-15T15:18:53.196Z,21.41
2019-05-15T15:21:24.487Z,21.59
2019-05-15T15:23:55.755Z,21.81
2019-05-15T15:26:29.315Z,20.58
2019-05-15T15:29:00.650Z,21.14
2019-05-15T15:31:32.071Z,21.42
2019-05-15T15:34:03.561Z,20.74
2019-05-15T15:36:34.820Z,20.91
2019-05-15T15:39:08.264Z,21.37
2019-05-15T15:41:39.791Z,21.61
2019-05-15T15:44:14.237Z,21.81
2019-05-15T15:46:48.296Z,21.36
2019-05-15T15:49:18.577Z,21.32
2019-05-15T15:51:49.862Z,21.58
2019-05-15T15:54:21.129Z,21.94
2019-05-15T15:56:52.486Z,22.50
2019-05-15T15:59:23.844Z,22.73
2019-05-15T16:01:59.857Z,22.77
2019-05-15T16:04:30.813Z,23.53
2019-05-15T16:07:02.037Z,23.49
2019-05-15T16:09:33.287Z,23.78
2019-05-15T16:12:04.595Z,23.28
2019-05-15T16:14:37.993Z,23.28
2019-05-15T16:17:08.846Z,22.63
2019-05-15T16:19:40.090Z,22.26
2019-05-15T16:22:11.403Z,22.82
2019-05-15T16:24:42.663Z,23.43
2019-05-15T16:27:14.022Z,23.51
2019-05-15T16:29:45.293Z,24.30
2019-05-15T16:32:21.050Z,24.65
2019-05-15T16:34:49.718Z,24.85
2019-05-15T16:37:21.024Z,24.87
2019-05-15T16:39:52.330Z,24.96
2019-05-15T16:42:23.661Z,24.87
2019-05-15T16:44:55.007Z,24.75
2019-05-15T16:47:27.940Z,24.33
2019-05-15T16:49:59.394Z,24.19
2019-05-15T16:52:31.379Z,24.37
2019-05-15T16:55:02.761Z,24.11
2019-05-15T16:57:34.091Z,24.91
2019-05-15T17:00:05.885Z,25.32
2019-05-15T17:02:39.146Z,25.59
2019-05-15T17:05:11.329Z,25.83
2019-05-15T17:07:42.646Z,26.19
2019-05-15T17:10:14.006Z,25.96
2019-05-15T17:12:45.386Z,26.04
2019-05-15T17:15:17.330Z,26.28
2019-05-15T17:17:48.791Z,25.96
2019-05-15T17:20:20.562Z,26.04
2019-05-15T17:22:51.970Z,25.71
2019-05-15T17:25:23.342Z,25.52
2019-05-15T17:27:54.720Z,25.73
2019-05-15T17:30:26.085Z,26.40
2019-05-15T17:32:57.401Z,26.30
2019-05-15T17:35:28.731Z,26.52
2019-05-15T17:38:00.071Z,26.15
2019-05-15T17:40:31.404Z,26.33
2019-05-15T17:43:02.796Z,26.54
2019-05-15T17:45:34.510Z,26.75
2019-05-15T17:48:05.838Z,27.00
2019-05-15T17:50:45.866Z,27.59
2019-05-15T17:53:10.253Z,27.42
2019-05-15T17:55:41.575Z,27.96
2019-05-15T17:58:12.937Z,27.78
2019-05-15T18:00:44.298Z,28.02
2019-05-15T18:03:15.616Z,28.60
2019-05-15T18:05:48.417Z,28.44
2019-05-15T18:08:19.842Z,28.62
2019-05-15T18:10:51.120Z,29.07
2019-05-15T18:13:22.414Z,29.09
2019-05-15T18:15:53.726Z,28.48
2019-05-15T18:18:25.078Z,28.40
2019-05-15T18:20:58.155Z,28.59
2019-05-15T18:23:29.688Z,28.98
2019-05-15T18:26:01.202Z,29.32
2019-05-15T18:28:32.532Z,29.53
2019-05-15T18:31:03.897Z,29.86
2019-05-15T18:33:35.278Z,29.67
2019-05-15T18:36:08.365Z,29.89
2019-05-15T18:38:39.631Z,30.09
2019-05-15T18:41:10.968Z,30.76
2019-05-15T18:43:42.326Z,30.90
2019-05-15T18:46:13.637Z,31.41
2019-05-15T18:48:48.606Z,31.67
2019-05-15T18:51:20.042Z,31.58
2019-05-15T18:53:51.381Z,32.15
2019-05-15T18:56:22.647Z,32.21
2019-05-15T18:58:53.956Z,32.50
2019-05-15T19:01:25.288Z,32.86
2019-05-15T19:03:58.263Z,33.12
2019-05-15T19:06:29.734Z,33.24
2019-05-15T19:09:01.818Z,33.18
2019-05-15T19:11:33.137Z,33.31
2019-05-15T19:14:04.453Z,33.64
2019-05-15T19:16:38.632Z,34.02
2019-05-15T19:19:08.933Z,33.94
2019-05-15T19:21:40.249Z,34.19
2019-05-15T19:24:11.745Z,34.12
2019-05-15T19:26:43.038Z,33.91
2019-05-15T19:29:14.331Z,39.58
2019-05-15T19:31:45.630Z,39.68
2019-05-15T19:34:18.989Z,34.79
2019-05-15T19:36:50.346Z,34.62
2019-05-15T19:39:21.685Z,34.71
2019-05-15T19:41:53.116Z,35.10
2019-05-15T19:44:24.404Z,35.15
2019-05-15T19:46:58.375Z,35.13
2019-05-15T19:49:28.944Z,35.51
2019-05-15T19:52:00.229Z,35.49
2019-05-15T19:54:31.521Z,35.41
2019-05-15T19:57:02.860Z,35.72
2019-05-15T19:59:34.202Z,36.37
2019-05-15T20:02:05.498Z,36.75
2019-05-15T20:04:38.528Z,36.84
2019-05-15T20:07:09.978Z,37.13
2019-05-15T20:09:41.278Z,37.17
2019-05-15T20:12:12.578Z,36.95
2019-05-15T20:14:44.114Z,37.14
2019-05-15T20:17:15.491Z,37.21
2019-05-15T20:19:48.774Z,37.23
2019-05-15T20:22:19.989Z,37.73
2019-05-15T20:24:51.266Z,37.78
2019-05-15T20:27:22.550Z,37.82
2019-05-15T20:29:53.989Z,38.08
2019-05-15T20:32:27.669Z,38.45
2019-05-15T20:34:58.309Z,38.55
2019-05-15T20:37:29.597Z,38.60
2019-05-15T20:40:00.886Z,38.79
2019-05-15T20:42:32.464Z,38.73
2019-05-15T20:45:03.786Z,39.07
2019-05-15T20:47:38.960Z,39.36
2019-05-15T20:50:11.038Z,40.35
2019-05-15T20:52:42.339Z,40.33
2019-05-15T20:55:13.727Z,39.56
2019-05-15T20:57:47.667Z,39.52
2019-05-15T21:00:19.580Z,39.52
2019-05-15T21:02:50.879Z,39.69
2019-05-15T21:05:22.191Z,39.71
2019-05-15T21:07:53.572Z,39.97
2019-05-15T21:10:25.015Z,40.14
2019-05-15T21:12:59.085Z,40.06
2019-05-15T21:15:29.251Z,40.39
2019-05-15T21:18:13.718Z,40.95
2019-05-15T21:20:33.593Z,41.16
2019-05-15T21:23:05.164Z,41.25
2019-05-15T21:25:38.707Z,41.58
2019-05-15T21:28:09.492Z,41.68
2019-05-15T21:30:41.031Z,42.23
2019-05-15T21:33:12.539Z,42.15
2019-05-15T21:35:43.825Z,42.52
2019-05-15T21:38:15.238Z,42.79
2019-05-15T21:40:47.971Z,43.27
2019-05-15T21:43:19.432Z,43.35
2019-05-15T21:45:50.748Z,43.67
2019-05-15T21:48:22.064Z,43.80
2019-05-15T21:50:53.349Z,44.38
2019-05-15T21:53:24.664Z,44.57
2019-05-15T21:55:55.981Z,44.72
2019-05-15T21:58:28.439Z,45.10
2019-05-15T22:01:00.194Z,45.40
2019-05-15T22:03:31.479Z,45.40
2019-05-15T22:06:22.236Z,45.67
2019-05-15T22:12:18.366Z,46.51
2019-05-15T22:15:21.507Z,46.18
2019-05-15T22:18:11.869Z,46.50
2019-05-15T22:20:54.375Z,47.09
2019-05-15T22:23:44.872Z,46.95
2019-05-15T22:26:29.031Z,47.14
2019-05-15T22:29:20.862Z,47.47
2019-05-15T22:32:24.633Z,47.30
2019-05-15T22:35:15.210Z,47.36
2019-05-15T22:37:58.490Z,47.48
2019-05-15T22:40:48.998Z,47.84
2019-05-15T22:43:31.864Z,48.28
2019-05-15T22:46:22.192Z,48.20
2019-05-15T22:49:05.207Z,48.39
2019-05-15T22:51:57.998Z,48.73
2019-05-15T22:54:59.822Z,49.02
2019-05-15T22:57:42.924Z,49.27
2019-05-15T23:00:33.290Z,49.28
2019-05-15T23:03:23.631Z,49.79
2019-05-15T23:06:08.248Z,50.42
2019-05-15T23:08:58.426Z,50.55
2019-05-15T23:11:41.102Z,51.19
2019-05-15T23:14:31.452Z,51.70
2019-05-15T23:17:14.167Z,51.26
2019-05-15T23:23:33.027Z,51.78
2019-05-15T23:26:23.448Z,51.81
2019-05-15T23:29:07.952Z,51.84
2019-05-15T23:31:58.513Z,52.19
2019-05-15T23:34:41.234Z,52.41
2019-05-15T23:37:31.555Z,52.48
2019-05-15T23:40:14.891Z,53.12
2019-05-15T23:43:05.598Z,53.46
2019-05-15T23:45:48.516Z,53.32
2019-05-15T23:48:38.899Z,53.52
2019-05-15T23:51:22.382Z,53.45
2019-05-15T23:54:12.746Z,53.43
2019-05-15T23:56:58.430Z,53.45
2019-05-15T23:59:40.972Z,53.56
